sensor_id;sensor_type;location;lat;lon;timestamp;P1;durP1;ratioP1;P2;durP2;ratioP2
5678;SDS011;2862;52.560;13.566;2023-05-16T00:01:53;29.77;;;11.50;;
5678;SDS011;2862;52.560;13.566;2023-05-16T00:11:56;23.63;;;9.97;;
5678;SDS011;2862;52.560;13.566;2023-05-16T00:22:01;31.20;;;10.47;;
5678;SDS011;2862;52.560;13.566;2023-05-16T00:32:05;23.97;;;9.00;;
5678;SDS011;2862;52.560;13.566;2023-05-16T00:42:11;30.70;;;10.40;;
5678;SDS011;2862;52.560;13.566;2023-05-16T00:52:14;22.13;;;8.70;;
5678;SDS011;2862;52.560;13.566;2023-05-16T01:02:20;25.80;;;9.50;;
5678;SDS011;2862;52.560;13.566;2023-05-16T01:12:26;24.77;;;10.40;;
5678;SDS011;2862;52.560;13.566;2023-05-16T01:22:37;35.20;;;12.87;;
5678;SDS011;2862;52.560;13.566;2023-05-16T01:32:51;28.13;;;11.83;;
5678;SDS011;2862;52.560;13.566;2023-05-16T01:42:54;33.67;;;13.17;;
5678;SDS011;2862;52.560;13.566;2023-05-16T01:53:02;34.70;;;14.43;;
5678;SDS011;2862;52.560;13.566;2023-05-16T02:03:10;37.83;;;16.23;;
5678;SDS011;2862;52.560;13.566;2023-05-16T02:13:14;43.90;;;18.83;;
5678;SDS011;2862;52.560;13.566;2023-05-16T02:23:18;43.60;;;18.97;;
5678;SDS011;2862;52.560;13.566;2023-05-16T02:33:23;38.40;;;21.27;;
5678;SDS011;2862;52.560;13.566;2023-05-16T02:43:28;38.77;;;18.00;;
5678;SDS011;2862;52.560;13.566;2023-05-16T02:53:33;35.20;;;18.67;;
5678;SDS011;2862;52.560;13.566;2023-05-16T03:03:36;38.70;;;18.87;;
5678;SDS011;2862;52.560;13.566;2023-05-16T03:13:41;40.27;;;18.60;;
5678;SDS011;2862;52.560;13.566;2023-05-16T03:23:44;39.53;;;18.00;;
5678;SDS011;2862;52.560;13.566;2023-05-16T03:33:48;35.00;;;17.60;;
5678;SDS011;2862;52.560;13.566;2023-05-16T03:43:52;38.00;;;19.20;;
5678;SDS011;2862;52.560;13.566;2023-05-16T03:53:56;39.33;;;19.80;;
5678;SDS011;2862;52.560;13.566;2023-05-16T04:03:59;40.13;;;18.43;;
5678;SDS011;2862;52.560;13.566;2023-05-16T04:14:04;42.63;;;20.30;;
5678;SDS011;2862;52.560;13.566;2023-05-16T04:24:07;38.83;;;18.60;;
5678;SDS011;2862;52.560;13.566;2023-05-16T04:34:12;42.07;;;19.17;;
5678;SDS011;2862;52.560;13.566;2023-05-16T04:44:16;38.80;;;18.33;;
5678;SDS011;2862;52.560;13.566;2023-05-16T04:54:22;51.57;;;24.93;;
5678;SDS011;2862;52.560;13.566;2023-05-16T05:04:25;41.33;;;19.80;;
5678;SDS011;2862;52.560;13.566;2023-05-16T05:14:29;43.80;;;20.30;;
5678;SDS011;2862;52.560;13.566;2023-05-16T05:24:33;40.83;;;21.03;;
5678;SDS011;2862;52.560;13.566;2023-05-16T05:34:38;51.70;;;27.07;;
5678;SDS011;2862;52.560;13.566;2023-05-16T05:44:42;38.37;;;19.57;;
5678;SDS011;2862;52.560;13.566;2023-05-16T05:54:47;40.97;;;12.60;;
5678;SDS011;2862;52.560;13.566;2023-05-16T06:04:50;30.30;;;13.67;;
5678;SDS011;2862;52.560;13.566;2023-05-16T06:14:54;32.27;;;12.87;;
5678;SDS011;2862;52.560;13.566;2023-05-16T06:24:58;32.97;;;15.67;;
5678;SDS011;2862;52.560;13.566;2023-05-16T06:35:02;31.27;;;13.17;;
5678;SDS011;2862;52.560;13.566;2023-05-16T06:45:09;34.00;;;12.40;;
5678;SDS011;2862;52.560;13.566;2023-05-16T06:55:16;28.27;;;10.17;;
5678;SDS011;2862;52.560;13.566;2023-05-16T07:05:19;34.77;;;13.20;;
5678;SDS011;2862;52.560;13.566;2023-05-16T07:15:23;29.53;;;10.57;;
5678;SDS011;2862;52.560;13.566;2023-05-16T07:25:26;42.27;;;10.20;;
5678;SDS011;2862;52.560;13.566;2023-05-16T07:35:30;24.70;;;8.03;;
5678;SDS011;2862;52.560;13.566;2023-05-16T07:45:33;26.00;;;7.60;;
5678;SDS011;2862;52.560;13.566;2023-05-16T07:55:39;23.53;;;7.80;;
5678;SDS011;2862;52.560;13.566;2023-05-16T08:05:42;22.27;;;6.63;;
5678;SDS011;2862;52.560;13.566;2023-05-16T08:15:47;24.23;;;7.13;;
5678;SDS011;2862;52.560;13.566;2023-05-16T08:25:50;20.83;;;3.30;;
5678;SDS011;2862;52.560;13.566;2023-05-16T08:35:57;17.90;;;3.20;;
5678;SDS011;2862;52.560;13.566;2023-05-16T08:46:02;17.87;;;2.93;;
5678;SDS011;2862;52.560;13.566;2023-05-16T08:56:06;16.30;;;2.20;;
5678;SDS011;2862;52.560;13.566;2023-05-16T09:06:10;21.53;;;3.20;;
5678;SDS011;2862;52.560;13.566;2023-05-16T09:16:15;18.90;;;1.37;;
5678;SDS011;2862;52.560;13.566;2023-05-16T09:26:19;22.83;;;1.47;;
5678;SDS011;2862;52.560;13.566;2023-05-16T09:36:25;26.37;;;2.60;;
5678;SDS011;2862;52.560;13.566;2023-05-16T09:46:28;18.40;;;1.20;;
5678;SDS011;2862;52.560;13.566;2023-05-16T09:56:33;19.73;;;1.60;;
5678;SDS011;2862;52.560;13.566;2023-05-16T10:06:50;17.37;;;0.97;;
5678;SDS011;2862;52.560;13.566;2023-05-16T10:16:55;16.70;;;0.87;;
5678;SDS011;2862;52.560;13.566;2023-05-16T10:26:59;22.00;;;4.57;;
5678;SDS011;2862;52.560;13.566;2023-05-16T10:37:05;21.70;;;2.60;;
5678;SDS011;2862;52.560;13.566;2023-05-16T10:47:08;23.77;;;2.93;;
5678;SDS011;2862;52.560;13.566;2023-05-16T10:57:15;21.07;;;2.50;;
5678;SDS011;2862;52.560;13.566;2023-05-16T11:07:21;18.50;;;2.20;;
5678;SDS011;2862;52.560;13.566;2023-05-16T11:17:27;22.97;;;2.70;;
5678;SDS011;2862;52.560;13.566;2023-05-16T11:27:30;19.10;;;1.20;;
5678;SDS011;2862;52.560;13.566;2023-05-16T11:37:35;25.57;;;3.77;;
5678;SDS011;2862;52.560;13.566;2023-05-16T11:47:40;24.70;;;2.60;;
5678;SDS011;2862;52.560;13.566;2023-05-16T11:57:45;19.27;;;1.17;;
5678;SDS011;2862;52.560;13.566;2023-05-16T12:07:49;29.83;;;1.57;;
5678;SDS011;2862;52.560;13.566;2023-05-16T12:17:53;25.67;;;4.17;;
5678;SDS011;2862;52.560;13.566;2023-05-16T12:27:58;28.33;;;3.50;;
5678;SDS011;2862;52.560;13.566;2023-05-16T12:38:04;24.23;;;2.80;;
5678;SDS011;2862;52.560;13.566;2023-05-16T12:48:11;20.93;;;2.00;;
5678;SDS011;2862;52.560;13.566;2023-05-16T12:58:16;50.47;;;20.80;;
5678;SDS011;2862;52.560;13.566;2023-05-16T13:08:18;26.03;;;2.50;;
5678;SDS011;2862;52.560;13.566;2023-05-16T13:18:23;19.00;;;1.00;;
5678;SDS011;2862;52.560;13.566;2023-05-16T13:28:26;34.13;;;2.20;;
5678;SDS011;2862;52.560;13.566;2023-05-16T13:38:30;28.10;;;1.73;;
5678;SDS011;2862;52.560;13.566;2023-05-16T13:48:33;27.67;;;3.70;;
5678;SDS011;2862;52.560;13.566;2023-05-16T13:58:38;27.50;;;1.33;;
5678;SDS011;2862;52.560;13.566;2023-05-16T14:08:46;24.60;;;1.63;;
5678;SDS011;2862;52.560;13.566;2023-05-16T14:18:50;32.00;;;5.47;;
5678;SDS011;2862;52.560;13.566;2023-05-16T14:28:53;26.43;;;1.60;;
5678;SDS011;2862;52.560;13.566;2023-05-16T14:38:59;24.87;;;3.30;;
5678;SDS011;2862;52.560;13.566;2023-05-16T14:49:01;21.33;;;1.00;;
5678;SDS011;2862;52.560;13.566;2023-05-16T14:59:06;18.30;;;0.40;;
5678;SDS011;2862;52.560;13.566;2023-05-16T15:09:09;29.27;;;4.70;;
5678;SDS011;2862;52.560;13.566;2023-05-16T15:19:14;38.57;;;12.63;;
5678;SDS011;2862;52.560;13.566;2023-05-16T15:29:17;18.73;;;1.33;;
5678;SDS011;2862;52.560;13.566;2023-05-16T15:39:21;18.70;;;0.47;;
5678;SDS011;2862;52.560;13.566;2023-05-16T15:49:26;17.00;;;0.40;;
5678;SDS011;2862;52.560;13.566;2023-05-16T15:59:30;16.40;;;0.40;;
5678;SDS011;2862;52.560;13.566;2023-05-16T16:09:33;17.87;;;0.50;;
5678;SDS011;2862;52.560;13.566;2023-05-16T16:19:38;15.17;;;0.40;;
5678;SDS011;2862;52.560;13.566;2023-05-16T16:29:41;19.20;;;1.03;;
5678;SDS011;2862;52.560;13.566;2023-05-16T16:39:45;21.13;;;0.70;;
5678;SDS011;2862;52.560;13.566;2023-05-16T16:49:48;18.50;;;0.80;;
5678;SDS011;2862;52.560;13.566;2023-05-16T16:59:52;16.07;;;0.30;;
5678;SDS011;2862;52.560;13.566;2023-05-16T17:09:55;20.47;;;0.40;;
5678;SDS011;2862;52.560;13.566;2023-05-16T17:19:59;15.83;;;0.30;;
5678;SDS011;2862;52.560;13.566;2023-05-16T17:30:06;18.30;;;0.30;;
5678;SDS011;2862;52.560;13.566;2023-05-16T17:40:12;25.17;;;0.70;;
5678;SDS011;2862;52.560;13.566;2023-05-16T17:50:17;18.53;;;0.40;;
5678;SDS011;2862;52.560;13.566;2023-05-16T18:00:23;15.90;;;0.50;;
5678;SDS011;2862;52.560;13.566;2023-05-16T18:10:26;22.90;;;1.90;;
5678;SDS011;2862;52.560;13.566;2023-05-16T18:20:33;22.07;;;2.50;;
5678;SDS011;2862;52.560;13.566;2023-05-16T18:30:35;17.43;;;0.60;;
5678;SDS011;2862;52.560;13.566;2023-05-16T18:40:40;15.27;;;0.60;;
5678;SDS011;2862;52.560;13.566;2023-05-16T18:50:48;29.03;;;1.10;;
5678;SDS011;2862;52.560;13.566;2023-05-16T19:00:52;22.00;;;2.37;;
5678;SDS011;2862;52.560;13.566;2023-05-16T19:10:55;19.80;;;2.70;;
5678;SDS011;2862;52.560;13.566;2023-05-16T19:21:00;19.80;;;1.57;;
5678;SDS011;2862;52.560;13.566;2023-05-16T19:31:03;24.60;;;2.40;;
5678;SDS011;2862;52.560;13.566;2023-05-16T19:41:08;18.03;;;1.83;;
5678;SDS011;2862;52.560;13.566;2023-05-16T19:51:11;21.53;;;0.60;;
5678;SDS011;2862;52.560;13.566;2023-05-16T20:01:15;20.60;;;0.83;;
5678;SDS011;2862;52.560;13.566;2023-05-16T20:11:17;17.50;;;0.80;;
5678;SDS011;2862;52.560;13.566;2023-05-16T20:21:22;14.93;;;0.50;;
5678;SDS011;2862;52.560;13.566;2023-05-16T20:31:25;21.50;;;1.57;;
5678;SDS011;2862;52.560;13.566;2023-05-16T20:41:45;24.53;;;0.83;;
5678;SDS011;2862;52.560;13.566;2023-05-16T20:51:48;20.80;;;1.53;;
5678;SDS011;2862;52.560;13.566;2023-05-16T21:01:52;18.50;;;1.47;;
5678;SDS011;2862;52.560;13.566;2023-05-16T21:11:57;38.37;;;12.40;;
5678;SDS011;2862;52.560;13.566;2023-05-16T21:22:02;27.77;;;1.60;;
5678;SDS011;2862;52.560;13.566;2023-05-16T21:32:07;20.27;;;0.60;;
5678;SDS011;2862;52.560;13.566;2023-05-16T21:42:22;21.70;;;2.40;;
5678;SDS011;2862;52.560;13.566;2023-05-16T21:52:25;23.03;;;1.30;;
5678;SDS011;2862;52.560;13.566;2023-05-16T22:02:29;20.40;;;0.93;;
5678;SDS011;2862;52.560;13.566;2023-05-16T22:12:32;18.27;;;0.60;;
5678;SDS011;2862;52.560;13.566;2023-05-16T22:22:36;27.87;;;0.67;;
5678;SDS011;2862;52.560;13.566;2023-05-16T22:32:39;19.90;;;0.73;;
5678;SDS011;2862;52.560;13.566;2023-05-16T22:42:44;22.00;;;0.87;;
5678;SDS011;2862;52.560;13.566;2023-05-16T22:52:47;17.10;;;0.67;;
5678;SDS011;2862;52.560;13.566;2023-05-16T23:02:52;20.83;;;0.60;;
5678;SDS011;2862;52.560;13.566;2023-05-16T23:12:56;21.57;;;0.70;;
5678;SDS011;2862;52.560;13.566;2023-05-16T23:23:01;18.17;;;0.70;;
5678;SDS011;2862;52.560;13.566;2023-05-16T23:33:04;21.30;;;0.50;;
5678;SDS011;2862;52.560;13.566;2023-05-16T23:43:09;15.40;;;0.77;;
5678;SDS011;2862;52.560;13.566;2023-05-16T23:53:12;15.30;;;0.53;;
